Time;durP1;ratioP1;P1;durP2;ratioP2;P2;SDS_P1;SDS_P2;PMS_P1;PMS_P2;Temp;Humidity;BMP_temperature;BMP_pressure;BME280_temperature;BME280_humidity;BME280_pressure;Samples;Min_cycle;Max_cycle;Signal;HPM_P1;HPM_P2
2023/05/29 00:02:02;;;;;;;1.50;1.00;;;16.30;92.40;;;;;;4989506;28;20488;-81
2023/05/29 00:04:30;;;;;;;1.43;0.93;;;16.20;92.40;;;;;;4995919;28;20459;-80
2023/05/29 00:07:00;;;;;;;1.47;0.90;;;16.20;92.20;;;;;;4986198;28;20487;-80
2023/05/29 00:09:26;;;;;;;1.47;0.90;;;16.20;92.40;;;;;;4991206;28;20461;-79
2023/05/29 00:11:53;;;;;;;1.50;0.90;;;16.10;92.40;;;;;;4985497;28;20489;-81
2023/05/29 00:14:22;;;;;;;1.50;0.90;;;16.10;92.30;;;;;;4991751;28;20493;-82
2023/05/29 00:16:50;;;;;;;1.50;1.10;;;16.00;92.40;;;;;;4985809;28;20488;-80
2023/05/29 00:19:17;;;;;;;1.50;1.00;;;16.00;92.30;;;;;;4993757;28;20466;-80
2023/05/29 00:21:47;;;;;;;2.13;1.93;;;16.00;92.40;;;;;;4983197;28;20704;-81
2023/05/29 00:24:14;;;;;;;1.50;1.10;;;16.00;92.00;;;;;;4987299;28;20516;-81
2023/05/29 00:26:41;;;;;;;1.50;1.00;;;15.90;92.00;;;;;;4981321;28;20485;-81
2023/05/29 00:29:08;;;;;;;1.47;0.90;;;15.90;92.10;;;;;;4990718;28;20453;-80
2023/05/29 00:31:35;;;;;;;1.47;1.00;;;15.80;92.30;;;;;;4990576;28;20487;-80
2023/05/29 00:34:04;;;;;;;1.47;1.00;;;15.80;92.50;;;;;;4996884;28;20496;-80
2023/05/29 00:36:32;;;;;;;1.50;1.00;;;15.70;92.60;;;;;;4986652;28;20490;-79
2023/05/29 00:39:00;;;;;;;1.50;1.00;;;15.70;92.50;;;;;;4992807;28;20466;-80
2023/05/29 00:41:26;;;;;;;1.50;1.07;;;15.60;92.60;;;;;;4986188;28;20488;-79
2023/05/29 00:43:53;;;;;;;1.50;1.00;;;15.60;93.10;;;;;;4991916;28;20484;-80
2023/05/29 00:46:21;;;;;;;1.50;1.00;;;15.60;92.80;;;;;;4982912;28;20848;-82
2023/05/29 00:48:48;;;;;;;1.50;0.90;;;15.60;93.20;;;;;;4989630;28;20626;-80
2023/05/29 00:51:16;;;;;;;1.50;1.10;;;15.50;93.40;;;;;;4982579;28;20488;-80
2023/05/29 00:53:44;;;;;;;1.47;1.00;;;15.50;92.90;;;;;;4993017;28;20461;-81
2023/05/29 00:56:13;;;;;;;1.50;1.00;;;15.50;93.60;;;;;;4989574;28;20516;-80
2023/05/29 00:58:41;;;;;;;1.50;1.00;;;15.40;93.20;;;;;;4992980;28;20956;-79
2023/05/29 01:01:07;;;;;;;1.50;1.00;;;15.40;93.30;;;;;;4984636;28;22039;-80
2023/05/29 01:03:35;;;;;;;1.50;1.00;;;15.30;93.60;;;;;;4997474;28;20952;-80
2023/05/29 01:06:03;;;;;;;1.50;1.00;;;15.30;93.80;;;;;;4985887;28;20457;-79
2023/05/29 01:08:30;;;;;;;1.60;1.13;;;15.20;94.20;;;;;;4998811;28;20932;-80
2023/05/29 01:11:04;;;;;;;1.50;1.00;;;15.20;94.30;;;;;;4986449;28;20480;-80
2023/05/29 01:13:35;;;;;;;1.47;1.00;;;15.10;94.40;;;;;;4992793;28;20461;-80
2023/05/29 01:16:09;;;;;;;1.50;1.00;;;15.10;94.50;;;;;;4985568;28;20488;-80
2023/05/29 01:18:46;;;;;;;1.50;1.00;;;15.00;94.90;;;;;;4991963;28;20957;-80
2023/05/29 01:21:22;;;;;;;1.50;1.10;;;15.00;95.20;;;;;;4987393;28;21026;-81
2023/05/29 01:23:57;;;;;;;1.43;1.00;;;15.00;94.90;;;;;;4994210;28;20464;-82
2023/05/29 01:26:43;;;;;;;1.47;1.00;;;14.80;95.60;;;;;;4980405;28;20571;-80
2023/05/29 01:29:13;;;;;;;1.47;0.90;;;14.80;95.40;;;;;;4991083;28;20457;-80
2023/05/29 01:31:42;;;;;;;1.50;1.00;;;14.80;95.60;;;;;;4986273;28;20488;-80
2023/05/29 01:34:09;;;;;;;1.50;1.00;;;14.70;96.10;;;;;;4997258;28;20495;-80
2023/05/29 01:36:36;;;;;;;1.43;1.00;;;14.60;96.20;;;;;;4985381;28;20489;-78
2023/05/29 01:39:03;;;;;;;1.50;1.00;;;14.60;96.30;;;;;;4988087;28;20472;-79
2023/05/29 01:41:31;;;;;;;1.50;1.00;;;14.50;96.90;;;;;;4984005;28;20529;-81
2023/05/29 01:44:03;;;;;;;1.50;1.00;;;14.50;96.90;;;;;;4990795;28;20564;-80
2023/05/29 01:46:30;;;;;;;1.47;1.00;;;14.40;97.30;;;;;;4981273;28;20512;-80
2023/05/29 01:48:57;;;;;;;1.40;1.00;;;14.40;97.40;;;;;;4991521;28;20461;-78
2023/05/29 01:51:24;;;;;;;1.47;1.00;;;14.40;97.80;;;;;;4981964;28;20903;-81
2023/05/29 01:53:51;;;;;;;1.47;1.00;;;14.30;97.60;;;;;;4994917;28;20469;-79
2023/05/29 01:56:18;;;;;;;1.50;1.10;;;14.30;98.00;;;;;;4984394;28;20476;-79
2023/05/29 01:58:45;;;;;;;2.10;1.60;;;14.20;98.20;;;;;;4996304;28;20469;-78
2023/05/29 02:01:13;;;;;;;1.40;0.93;;;14.20;98.20;;;;;;4985003;28;20550;-80
2023/05/29 02:03:41;;;;;;;1.50;1.00;;;14.10;98.20;;;;;;4996635;28;20472;-79
2023/05/29 02:06:08;;;;;;;1.50;1.00;;;14.10;98.20;;;;;;4988765;28;20487;-81
2023/05/29 02:08:35;;;;;;;1.47;1.00;;;14.10;98.20;;;;;;4996250;28;20499;-78
2023/05/29 02:11:02;;;;;;;1.43;0.90;;;14.00;98.20;;;;;;4987280;28;20484;-78
2023/05/29 02:13:29;;;;;;;1.50;1.10;;;14.00;98.20;;;;;;4998249;28;20476;-79
2023/05/29 02:15:55;;;;;;;1.50;1.10;;;14.00;98.20;;;;;;4987527;28;20572;-79
2023/05/29 02:18:24;;;;;;;1.50;1.00;;;13.90;98.20;;;;;;4997762;28;20500;-80
2023/05/29 02:20:50;;;;;;;1.50;1.10;;;13.90;98.20;;;;;;4984520;28;20477;-79
2023/05/29 02:23:19;;;;;;;1.50;1.10;;;13.80;98.20;;;;;;4996568;28;20544;-80
2023/05/29 02:25:46;;;;;;;1.50;1.03;;;13.80;98.20;;;;;;4993953;28;20473;-78
2023/05/29 02:28:13;;;;;;;1.50;1.07;;;13.70;98.20;;;;;;4994325;28;20487;-81
2023/05/29 02:30:40;;;;;;;1.50;1.00;;;13.70;98.20;;;;;;4994472;28;21197;-79
2023/05/29 02:33:07;;;;;;;1.47;1.00;;;13.70;98.20;;;;;;4986681;28;20492;-79
2023/05/29 02:35:35;;;;;;;1.50;1.10;;;13.60;98.20;;;;;;4998190;28;20488;-79
2023/05/29 02:38:02;;;;;;;1.50;1.00;;;13.50;98.20;;;;;;4986953;28;20484;-79
2023/05/29 02:40:29;;;;;;;1.50;1.10;;;13.50;98.20;;;;;;4998679;28;20518;-80
2023/05/29 02:42:56;;;;;;;1.50;1.00;;;13.50;98.20;;;;;;4988417;28;21038;-79
2023/05/29 02:45:23;;;;;;;1.50;1.03;;;13.40;98.20;;;;;;4999130;28;20475;-81
2023/05/29 02:47:49;;;;;;;1.50;1.10;;;13.40;98.20;;;;;;4986396;28;20476;-79
2023/05/29 02:50:16;;;;;;;1.50;1.00;;;13.40;98.20;;;;;;4999493;28;20476;-80
2023/05/29 02:52:44;;;;;;;1.43;0.93;;;13.30;98.20;;;;;;4987047;28;20543;-82
2023/05/29 02:55:11;;;;;;;1.50;1.00;;;13.30;98.20;;;;;;4999909;28;20584;-80
2023/05/29 02:57:38;;;;;;;1.50;1.00;;;13.30;98.20;;;;;;4987757;28;20503;-80
2023/05/29 03:00:07;;;;;;;1.50;1.00;;;13.20;98.20;;;;;;4998300;28;20483;-83
2023/05/29 03:02:34;;;;;;;1.50;1.00;;;13.20;98.20;;;;;;4988864;28;20480;-81
2023/05/29 03:05:02;;;;;;;1.43;1.00;;;13.10;98.20;;;;;;4999003;28;20452;-83
2023/05/29 03:07:28;;;;;;;1.50;1.00;;;13.10;98.20;;;;;;4988599;28;20995;-81
2023/05/29 03:09:57;;;;;;;1.50;1.00;;;13.00;98.20;;;;;;5001118;28;20612;-81
2023/05/29 03:12:24;;;;;;;1.50;1.00;;;13.00;98.20;;;;;;4989699;28;20508;-79
2023/05/29 03:14:51;;;;;;;1.50;1.00;;;12.90;98.20;;;;;;5004286;28;20485;-82
2023/05/29 03:17:18;;;;;;;1.50;1.00;;;12.90;98.20;;;;;;4991716;28;20484;-82
2023/05/29 03:19:45;;;;;;;1.50;1.00;;;12.90;98.20;;;;;;5001425;28;20475;-80
2023/05/29 03:22:12;;;;;;;1.50;1.10;;;12.90;98.20;;;;;;4987312;28;20472;-81
2023/05/29 03:24:38;;;;;;;1.50;1.00;;;12.80;98.20;;;;;;5001371;28;20475;-83
2023/05/29 03:27:07;;;;;;;1.50;1.10;;;12.80;98.20;;;;;;4987952;28;20838;-80
2023/05/29 03:29:33;;;;;;;1.50;1.00;;;12.70;98.20;;;;;;5004965;28;20528;-80
2023/05/29 03:32:00;;;;;;;1.47;1.00;;;12.70;98.20;;;;;;4989698;28;20480;-82
2023/05/29 03:34:27;;;;;;;1.50;1.00;;;12.70;98.20;;;;;;5000988;28;20472;-82
2023/05/29 03:36:54;;;;;;;1.50;1.10;;;12.60;98.20;;;;;;4991942;28;20508;-83
2023/05/29 03:39:21;;;;;;;1.50;1.00;;;12.60;98.20;;;;;;4997384;28;20821;-81
2023/05/29 03:41:48;;;;;;;1.50;1.00;;;12.60;98.20;;;;;;4989970;28;20495;-80
2023/05/29 03:44:16;;;;;;;1.50;1.10;;;12.60;98.20;;;;;;5008740;28;20457;-80
2023/05/29 03:46:43;;;;;;;1.50;1.10;;;12.60;98.20;;;;;;4988157;28;20630;-81
2023/05/29 03:49:09;;;;;;;1.80;1.70;;;12.60;98.20;;;;;;5001928;28;20456;-81
2023/05/29 03:51:36;;;;;;;1.50;1.00;;;12.50;98.20;;;;;;4988684;28;20492;-81
2023/05/29 03:54:03;;;;;;;1.50;1.07;;;12.60;98.20;;;;;;5000752;28;20738;-82
2023/05/29 03:56:31;;;;;;;1.40;1.00;;;12.50;98.20;;;;;;4985758;28;20493;-81
2023/05/29 03:58:57;;;;;;;1.50;1.00;;;12.50;98.20;;;;;;4999311;28;20815;-81
2023/05/29 04:01:26;;;;;;;1.50;1.00;;;12.50;98.20;;;;;;4985342;28;20490;-82
2023/05/29 04:03:52;;;;;;;1.47;1.00;;;12.50;98.20;;;;;;4998794;28;20489;-80
2023/05/29 04:06:19;;;;;;;1.47;1.00;;;12.50;98.20;;;;;;4984362;28;20603;-81
2023/05/29 04:08:46;;;;;;;1.50;1.00;;;12.50;98.20;;;;;;4997639;28;20453;-81
2023/05/29 04:11:13;;;;;;;1.50;1.10;;;12.50;98.20;;;;;;4987749;28;20483;-81
2023/05/29 04:13:40;;;;;;;1.47;1.00;;;12.50;98.20;;;;;;5001685;28;20472;-80
2023/05/29 04:16:07;;;;;;;1.50;1.10;;;12.60;98.20;;;;;;4989023;28;20473;-82
2023/05/29 04:18:35;;;;;;;1.43;0.97;;;12.50;98.20;;;;;;4999559;28;20457;-81
2023/05/29 04:21:02;;;;;;;1.50;1.10;;;12.60;98.20;;;;;;4996608;28;20476;-80
2023/05/29 04:23:29;;;;;;;1.50;1.10;;;12.50;98.20;;;;;;4997907;28;20465;-82
2023/05/29 04:25:56;;;;;;;1.50;1.10;;;12.60;98.20;;;;;;4996036;28;20449;-80
2023/05/29 04:28:23;;;;;;;1.50;1.20;;;12.50;98.20;;;;;;4996143;28;21038;-81
2023/05/29 04:30:50;;;;;;;1.47;1.00;;;12.50;98.20;;;;;;4993175;28;20483;-81
2023/05/29 04:33:20;;;;;;;1.50;1.20;;;12.50;98.20;;;;;;5001227;28;20463;-82
2023/05/29 04:36:32;;;;;;;1.50;1.10;;;12.50;98.20;;;;;;5006830;28;20477;-79
2023/05/29 04:39:01;;;;;;;1.47;1.07;;;12.60;98.20;;;;;;4990463;28;20484;-83
2023/05/29 04:41:30;;;;;;;1.50;1.03;;;12.60;98.20;;;;;;4984093;28;20493;-80
2023/05/29 04:43:58;;;;;;;1.50;1.10;;;12.60;98.20;;;;;;5001979;28;20458;-83
2023/05/29 04:46:25;;;;;;;1.50;1.00;;;12.60;98.20;;;;;;4993767;28;20548;-81
2023/05/29 04:48:52;;;;;;;1.50;1.10;;;12.60;98.20;;;;;;5000777;28;20465;-82
2023/05/29 04:51:19;;;;;;;1.50;1.00;;;12.70;98.20;;;;;;4989019;28;21034;-83
2023/05/29 04:53:47;;;;;;;1.50;1.00;;;12.70;98.20;;;;;;5005394;28;20461;-85
2023/05/29 04:56:15;;;;;;;1.50;1.10;;;12.70;98.20;;;;;;4994682;28;21004;-88
2023/05/29 04:58:43;;;;;;;1.50;1.10;;;12.80;98.20;;;;;;5004010;28;20499;-83
2023/05/29 05:01:14;;;;;;;1.50;1.10;;;13.00;98.20;;;;;;4988919;28;20492;-85
2023/05/29 05:03:41;;;;;;;1.50;1.00;;;13.00;98.20;;;;;;5000973;28;20540;-84
2023/05/29 05:06:07;;;;;;;1.50;1.10;;;13.10;98.20;;;;;;4992297;28;20468;-81
2023/05/29 05:08:35;;;;;;;1.50;1.10;;;13.20;98.20;;;;;;5002207;28;20476;-84
2023/05/29 05:11:02;;;;;;;1.50;1.00;;;13.20;98.20;;;;;;4995784;28;20492;-82
2023/05/29 05:13:31;;;;;;;1.50;1.00;;;13.30;98.20;;;;;;5002552;28;20842;-82
2023/05/29 05:15:58;;;;;;;1.50;1.10;;;13.40;98.20;;;;;;4994251;28;20570;-83
2023/05/29 05:18:24;;;;;;;1.50;1.00;;;13.40;98.20;;;;;;4997554;28;20477;-84
2023/05/29 05:20:59;;;;;;;1.50;1.00;;;13.50;98.20;;;;;;4989922;28;20487;-82
2023/05/29 05:23:26;;;;;;;1.50;1.00;;;13.70;98.20;;;;;;5002531;28;20452;-83
2023/05/29 05:25:53;;;;;;;1.50;1.00;;;13.70;98.20;;;;;;4993943;28;20547;-83
2023/05/29 05:28:20;;;;;;;1.50;1.10;;;13.80;98.20;;;;;;4999534;28;20464;-82
2023/05/29 05:30:48;;;;;;;1.50;1.10;;;13.90;98.20;;;;;;5001680;28;20477;-84
2023/05/29 05:35:50;;;;;;;1.50;1.00;;;13.90;98.20;;;;;;3350794;22;20606;-89
2023/05/29 05:38:17;;;;;;;1.50;1.07;;;14.00;98.20;;;;;;5035652;22;20585;-88
2023/05/29 05:40:45;;;;;;;1.50;1.10;;;14.10;98.20;;;;;;5026663;28;20459;-89
2023/05/29 05:43:11;;;;;;;1.50;1.00;;;14.10;98.20;;;;;;5019278;28;20471;-90
2023/05/29 05:45:41;;;;;;;1.50;1.10;;;14.10;98.20;;;;;;5043834;28;20447;-92
2023/05/29 05:48:11;;;;;;;1.50;1.10;;;14.20;98.20;;;;;;4993445;28;20600;-90
2023/05/29 05:50:39;;;;;;;1.50;1.00;;;14.20;98.20;;;;;;5002896;28;20456;-91
2023/05/29 05:53:06;;;;;;;1.43;1.00;;;14.30;98.20;;;;;;5002325;28;21307;-89
2023/05/29 05:55:33;;;;;;;1.50;1.10;;;14.30;97.80;;;;;;4993926;28;20670;-90
2023/05/29 05:58:00;;;;;;;1.50;1.00;;;14.30;98.00;;;;;;4999314;28;20982;-91
2023/05/29 06:00:27;;;;;;;1.50;1.00;;;14.40;98.00;;;;;;4989001;28;20503;-90
2023/05/29 06:02:54;;;;;;;1.50;1.00;;;14.40;97.60;;;;;;4970089;28;20474;-93
2023/05/29 06:05:22;;;;;;;1.50;1.00;;;14.60;98.00;;;;;;5009118;28;20462;-91
2023/05/29 06:07:49;;;;;;;1.47;1.00;;;14.80;97.00;;;;;;4991741;28;20554;-91
2023/05/29 06:10:16;;;;;;;1.47;1.00;;;15.00;96.80;;;;;;5026559;28;20460;-90
2023/05/29 06:12:43;;;;;;;1.50;1.00;;;15.10;96.40;;;;;;5039352;28;20494;-91
2023/05/29 06:15:11;;;;;;;1.50;0.97;;;15.20;96.30;;;;;;5040087;28;20447;-90
2023/05/29 06:17:37;;;;;;;1.50;0.90;;;15.30;96.00;;;;;;5025655;28;20482;-93
2023/05/29 06:20:08;;;;;;;1.50;0.90;;;15.50;95.40;;;;;;5040471;28;20515;-91
2023/05/29 06:22:36;;;;;;;1.47;0.90;;;15.60;95.10;;;;;;4990143;28;20488;-91
2023/05/29 06:25:04;;;;;;;1.50;1.00;;;15.70;94.30;;;;;;5033735;28;20463;-92
2023/05/29 06:27:30;;;;;;;1.50;0.90;;;15.70;94.60;;;;;;5022589;28;20488;-90
2023/05/29 06:29:57;;;;;;;1.50;1.00;;;15.80;95.40;;;;;;5039923;28;20483;-92
2023/05/29 06:32:24;;;;;;;1.50;1.07;;;16.00;94.50;;;;;;5024855;28;20539;-92
2023/05/29 06:34:51;;;;;;;1.50;1.00;;;16.20;93.30;;;;;;5037836;28;20463;-93
2023/05/29 06:37:18;;;;;;;1.50;0.90;;;16.30;92.90;;;;;;5030384;28;20497;-91
2023/05/29 06:39:47;;;;;;;1.47;0.90;;;16.40;93.20;;;;;;5029676;28;20491;-91
2023/05/29 06:42:14;;;;;;;1.47;0.90;;;16.50;92.40;;;;;;5020667;28;20475;-90
2023/05/29 06:44:41;;;;;;;1.50;1.00;;;16.50;92.00;;;;;;5043348;28;20464;-92
2023/05/29 06:47:08;;;;;;;1.47;1.00;;;16.60;92.40;;;;;;5029902;28;20620;-92
2023/05/29 06:49:35;;;;;;;1.47;1.00;;;16.70;92.60;;;;;;5041415;28;20502;-90
2023/05/29 06:52:02;;;;;;;1.43;0.90;;;16.80;92.50;;;;;;5016735;28;20477;-91
2023/05/29 06:54:28;;;;;;;1.50;1.00;;;17.00;92.20;;;;;;5025625;28;20550;-89
2023/05/29 06:56:56;;;;;;;1.53;1.10;;;17.20;91.50;;;;;;5018145;28;20482;-90
2023/05/29 06:59:24;;;;;;;1.47;0.90;;;17.30;91.00;;;;;;5030396;28;20542;-90
2023/05/29 07:01:50;;;;;;;1.50;0.90;;;17.40;90.90;;;;;;5034641;28;20557;-88
2023/05/29 07:04:18;;;;;;;1.50;0.90;;;17.40;90.40;;;;;;5020763;28;20459;-91
2023/05/29 07:09:56;;;;;;;1.40;0.90;;;17.70;90.10;;;;;;5033822;28;20473;-89
2023/05/29 07:12:24;;;;;;;1.43;0.90;;;17.90;89.90;;;;;;5012755;28;20480;-90
2023/05/29 07:14:51;;;;;;;1.50;0.90;;;18.10;89.40;;;;;;5025914;28;20464;-90
2023/05/29 07:17:19;;;;;;;1.60;1.50;;;18.20;89.40;;;;;;5020018;28;20513;-92
2023/05/29 07:19:46;;;;;;;1.50;1.00;;;18.50;88.90;;;;;;5034815;28;20483;-93
2023/05/29 07:22:13;;;;;;;1.50;1.20;;;18.70;88.40;;;;;;5020574;28;20498;-92
2023/05/29 07:24:40;;;;;;;1.47;0.90;;;18.80;87.30;;;;;;5036693;28;20819;-92
2023/05/29 07:27:07;;;;;;;1.50;0.90;;;19.00;87.20;;;;;;5032384;28;20467;-91
2023/05/29 07:29:35;;;;;;;1.43;0.90;;;19.10;87.30;;;;;;5036546;28;20487;-89
2023/05/29 07:32:03;;;;;;;1.50;0.90;;;19.20;86.40;;;;;;5034978;28;20487;-90
2023/05/29 07:34:30;;;;;;;1.50;0.90;;;19.30;86.70;;;;;;5035911;28;20462;-91
2023/05/29 07:37:01;;;;;;;1.47;0.90;;;19.50;86.10;;;;;;5018944;28;20501;-94
2023/05/29 07:39:28;;;;;;;1.50;0.90;;;19.50;85.30;;;;;;5029393;28;20486;-91
2023/05/29 07:41:55;;;;;;;1.50;0.90;;;19.60;85.50;;;;;;5018359;28;20479;-90
2023/05/29 07:44:21;;;;;;;1.50;0.90;;;19.70;85.10;;;;;;5015039;28;21123;-88
2023/05/29 07:46:50;;;;;;;1.50;0.90;;;19.70;84.30;;;;;;5011991;28;20472;-89
2023/05/29 07:49:16;;;;;;;1.47;0.90;;;19.80;84.20;;;;;;5024971;28;20463;-92
2023/05/29 07:51:43;;;;;;;2.83;2.57;;;19.90;85.70;;;;;;5023516;28;20474;-92
2023/05/29 07:54:10;;;;;;;1.50;1.00;;;20.00;84.50;;;;;;5033237;28;20467;-89
2023/05/29 07:56:37;;;;;;;1.43;0.90;;;20.10;83.40;;;;;;5020597;28;20903;-90
2023/05/29 07:59:04;;;;;;;1.50;0.90;;;20.10;84.30;;;;;;5022856;28;20490;-90
2023/05/29 08:01:31;;;;;;;1.50;0.90;;;20.10;83.80;;;;;;5012808;28;20645;-90
2023/05/29 08:03:59;;;;;;;1.50;0.90;;;20.20;83.70;;;;;;5028595;28;20491;-89
2023/05/29 08:06:26;;;;;;;1.50;0.90;;;20.20;83.50;;;;;;5013819;28;20478;-91
2023/05/29 08:08:53;;;;;;;1.47;0.90;;;20.20;84.50;;;;;;5014122;28;20484;-90
2023/05/29 08:11:19;;;;;;;1.50;0.90;;;20.30;83.80;;;;;;5016556;28;20505;-91
2023/05/29 08:13:46;;;;;;;1.47;0.90;;;20.30;84.20;;;;;;5028778;28;20866;-90
2023/05/29 08:16:16;;;;;;;1.47;0.90;;;20.50;83.10;;;;;;5008511;28;20489;-90
2023/05/29 08:18:43;;;;;;;1.47;0.90;;;20.50;82.90;;;;;;5022722;28;20973;-91
2023/05/29 08:21:12;;;;;;;1.50;0.90;;;20.50;83.60;;;;;;5029913;28;20483;-92
2023/05/29 08:23:39;;;;;;;1.47;0.90;;;20.60;83.20;;;;;;5027453;28;20492;-90
2023/05/29 08:26:06;;;;;;;1.50;0.90;;;20.80;81.40;;;;;;5014675;28;20464;-90
2023/05/29 08:28:33;;;;;;;1.40;0.90;;;20.80;81.90;;;;;;5034967;28;20550;-91
2023/05/29 08:31:00;;;;;;;1.47;0.90;;;20.90;81.80;;;;;;5026608;28;20474;-89
2023/05/29 08:33:26;;;;;;;1.50;0.90;;;20.90;82.30;;;;;;5041471;28;21079;-90
2023/05/29 08:36:03;;;;;;;1.43;0.90;;;20.90;82.20;;;;;;5022710;28;20562;-90
2023/05/29 08:38:31;;;;;;;1.43;0.90;;;20.80;82.00;;;;;;5024573;28;20605;-91
2023/05/29 08:41:00;;;;;;;1.47;0.90;;;20.80;82.40;;;;;;5019955;28;20464;-92
2023/05/29 08:43:47;;;;;;;1.50;0.90;;;20.90;81.60;;;;;;5020922;28;20468;-91
2023/05/29 08:46:16;;;;;;;1.47;0.80;;;20.90;82.20;;;;;;5013141;28;20846;-90
2023/05/29 08:48:47;;;;;;;1.43;0.80;;;21.20;82.20;;;;;;5037444;28;20488;-90
2023/05/29 08:51:17;;;;;;;1.47;0.80;;;21.40;83.30;;;;;;5014333;28;21043;-90
2023/05/29 08:53:47;;;;;;;1.47;0.90;;;21.60;81.80;;;;;;5023156;28;20467;-90
2023/05/29 08:56:17;;;;;;;1.43;0.90;;;21.80;80.60;;;;;;5014530;28;20479;-90
2023/05/29 08:58:45;;;;;;;1.43;0.90;;;21.90;80.10;;;;;;5028062;28;20614;-91
2023/05/29 09:01:12;;;;;;;1.47;0.80;;;22.10;80.10;;;;;;5017035;28;20471;-91
2023/05/29 09:03:41;;;;;;;1.47;0.83;;;22.20;80.10;;;;;;5025666;28;20467;-89
2023/05/29 09:06:08;;;;;;;1.47;0.90;;;22.30;78.90;;;;;;5012141;28;20857;-93
2023/05/29 09:08:35;;;;;;;1.50;0.90;;;22.40;79.20;;;;;;5028970;28;20912;-92
2023/05/29 09:11:15;;;;;;;1.43;0.90;;;22.50;78.90;;;;;;5020492;28;20523;-90
2023/05/29 09:51:22;;;;;;;1.50;1.10;;;22.70;78.30;;;;;;5075448;28;20565;-78
2023/05/29 09:53:50;;;;;;;1.40;0.90;;;22.70;78.00;;;;;;5087414;28;20969;-77
2023/05/29 09:56:18;;;;;;;1.43;0.80;;;22.80;78.20;;;;;;5078409;28;20484;-78
2023/05/29 09:58:47;;;;;;;1.47;0.90;;;22.90;78.10;;;;;;5072543;28;20459;-78
2023/05/29 10:01:15;;;;;;;2.03;1.83;;;23.00;79.80;;;;;;5069023;28;20928;-79
2023/05/29 10:03:43;;;;;;;1.47;0.83;;;23.10;78.80;;;;;;5069314;28;20476;-77
2023/05/29 10:06:16;;;;;;;1.60;1.17;;;23.30;77.70;;;;;;5075279;28;20485;-78
2023/05/29 10:08:49;;;;;;;1.47;0.90;;;23.20;77.10;;;;;;5069857;28;20533;-78
2023/05/29 10:11:24;;;;;;;1.50;0.90;;;23.10;77.30;;;;;;5077729;28;20777;-78
2023/05/29 10:13:53;;;;;;;1.40;0.80;;;23.30;78.20;;;;;;5085235;28;20568;-76
2023/05/29 10:16:25;;;;;;;1.40;0.80;;;23.60;77.40;;;;;;5073930;28;20482;-80
2023/05/29 10:18:57;;;;;;;1.50;1.00;;;23.60;76.80;;;;;;5070386;28;20463;-82
2023/05/29 10:21:30;;;;;;;1.50;0.80;;;23.40;76.00;;;;;;5070617;28;20875;-79
2023/05/29 10:23:59;;;;;;;1.47;0.83;;;23.10;76.90;;;;;;5078771;28;20455;-78
2023/05/29 10:26:30;;;;;;;1.50;0.90;;;22.90;77.70;;;;;;5072948;28;20870;-81
2023/05/29 10:29:04;;;;;;;1.50;0.93;;;22.70;76.70;;;;;;5074824;28;20696;-79
2023/05/29 10:31:40;;;;;;;1.50;0.90;;;22.70;78.50;;;;;;5072319;28;20565;-78
2023/05/29 10:34:20;;;;;;;1.47;0.80;;;22.90;77.40;;;;;;5082095;28;20452;-79
2023/05/29 14:30:34;;;;;;;1.43;0.80;;;24.40;73.30;;;;;;5085655;28;20459;-77
2023/05/29 14:33:03;;;;;;;1.50;0.83;;;24.40;73.10;;;;;;5064955;28;20818;-77
2023/05/29 14:35:30;;;;;;;1.40;0.90;;;24.30;71.80;;;;;;5063630;28;20554;-76
2023/05/29 14:37:57;;;;;;;1.70;1.10;;;24.20;72.20;;;;;;5050645;28;20478;-77
2023/05/29 14:40:24;;;;;;;1.50;0.90;;;24.20;72.50;;;;;;5065018;28;20558;-77
2023/05/29 14:42:51;;;;;;;1.50;0.90;;;24.20;72.50;;;;;;5049770;28;20486;-78
2023/05/29 14:45:18;;;;;;;2.23;1.30;;;24.10;73.00;;;;;;5066285;28;20837;-77
2023/05/29 14:47:45;;;;;;;1.47;0.80;;;24.20;72.50;;;;;;5075367;28;21391;-77
2023/05/29 14:50:15;;;;;;;1.43;0.80;;;24.00;71.90;;;;;;5063146;28;20860;-77
2023/05/29 14:52:42;;;;;;;1.50;0.93;;;23.80;72.30;;;;;;5045728;28;20568;-76
2023/05/29 14:55:09;;;;;;;1.47;0.80;;;23.60;72.30;;;;;;5062317;28;20548;-76
2023/05/29 14:57:36;;;;;;;1.43;0.90;;;23.70;72.50;;;;;;5050445;28;20476;-77
2023/05/29 15:00:03;;;;;;;1.40;0.80;;;23.60;73.20;;;;;;5048131;28;21007;-77
2023/05/29 15:02:29;;;;;;;1.43;0.90;;;23.50;72.60;;;;;;5070680;28;20491;-76
2023/05/29 15:05:52;;;;;;;1.43;0.80;;;23.50;72.90;;;;;;5068229;28;20491;-79
2023/05/29 15:08:20;;;;;;;1.47;0.90;;;23.40;71.90;;;;;;5067000;28;20462;-76
2023/05/29 15:10:47;;;;;;;1.47;0.87;;;23.30;73.10;;;;;;5069632;28;20514;-77
2023/05/29 15:13:14;;;;;;;1.50;0.90;;;23.20;73.20;;;;;;5058889;28;20497;-78
2023/05/29 15:15:41;;;;;;;1.43;0.80;;;23.10;73.40;;;;;;5074279;28;21020;-76
2023/05/29 15:18:08;;;;;;;1.47;0.90;;;23.00;73.00;;;;;;5042009;28;20990;-76
2023/05/29 15:20:34;;;;;;;1.47;0.83;;;22.90;73.10;;;;;;5075382;28;20484;-75
2023/05/29 15:23:01;;;;;;;1.50;0.90;;;22.80;73.80;;;;;;5044087;28;20482;-76
2023/05/29 15:25:29;;;;;;;1.50;1.20;;;22.80;73.90;;;;;;5077032;28;20467;-77
2023/05/29 15:27:56;;;;;;;2.43;1.10;;;22.80;74.20;;;;;;5049175;28;20481;-75
2023/05/29 15:30:23;;;;;;;1.43;0.87;;;22.70;74.30;;;;;;5078784;28;21147;-76
2023/05/29 15:32:50;;;;;;;1.47;0.90;;;22.50;74.10;;;;;;5043622;28;20480;-76
2023/05/29 15:35:17;;;;;;;1.47;0.90;;;22.50;74.70;;;;;;5075633;28;20680;-75
2023/05/29 15:37:44;;;;;;;1.47;0.90;;;22.40;73.90;;;;;;5052059;28;20482;-76
2023/05/29 15:40:11;;;;;;;1.47;0.90;;;22.30;74.90;;;;;;5071368;28;20496;-76
2023/05/29 15:42:39;;;;;;;1.43;0.90;;;22.30;75.00;;;;;;5054612;28;20489;-76
2023/05/29 15:45:07;;;;;;;1.43;0.90;;;22.30;75.20;;;;;;5068950;28;20488;-78
2023/05/29 15:47:34;;;;;;;1.47;0.90;;;22.30;75.70;;;;;;5072129;28;20468;-77
2023/05/29 15:50:01;;;;;;;1.50;0.90;;;22.30;74.10;;;;;;5074870;28;21043;-77
2023/05/29 15:52:27;;;;;;;1.47;0.90;;;22.30;74.00;;;;;;5053133;28;20473;-77
2023/05/29 15:54:54;;;;;;;1.43;0.90;;;22.50;74.40;;;;;;5075567;28;20468;-76
2023/05/29 15:57:21;;;;;;;1.43;0.90;;;22.50;73.80;;;;;;5052336;28;20500;-77
2023/05/29 15:59:50;;;;;;;1.50;0.80;;;22.60;74.20;;;;;;5071151;28;20488;-77
2023/05/29 16:02:17;;;;;;;1.47;0.90;;;22.70;73.40;;;;;;5048993;28;20636;-78
2023/05/29 16:04:45;;;;;;;1.43;0.90;;;22.80;73.50;;;;;;5066589;28;20480;-77
2023/05/29 16:07:12;;;;;;;1.47;0.80;;;22.80;72.40;;;;;;5057494;28;20476;-77
2023/05/29 16:09:40;;;;;;;1.60;1.20;;;22.80;72.10;;;;;;5068860;28;20504;-79
2023/05/29 16:12:10;;;;;;;1.50;1.20;;;22.80;72.00;;;;;;5044628;28;20486;-76
2023/05/29 16:14:37;;;;;;;1.43;0.90;;;22.90;72.20;;;;;;5056549;28;20457;-76
2023/05/29 16:17:06;;;;;;;1.43;0.90;;;22.90;72.50;;;;;;5052297;28;20978;-77
2023/05/29 16:19:33;;;;;;;1.47;0.90;;;22.90;71.40;;;;;;5073044;28;21029;-76
2023/05/29 16:22:00;;;;;;;1.47;0.87;;;22.90;70.10;;;;;;5047031;28;20552;-77
2023/05/29 16:24:27;;;;;;;1.43;0.80;;;22.90;70.40;;;;;;5056317;28;20473;-77
2023/05/29 16:26:54;;;;;;;1.43;0.90;;;22.80;70.00;;;;;;5042560;28;21102;-76
2023/05/29 16:29:23;;;;;;;1.47;0.90;;;22.80;70.60;;;;;;5058274;28;20477;-77
2023/05/29 16:31:50;;;;;;;1.43;0.90;;;22.80;70.70;;;;;;5045533;28;20490;-77
2023/05/29 16:34:18;;;;;;;1.43;0.80;;;22.80;70.90;;;;;;5059035;28;20465;-76
2023/05/29 16:36:46;;;;;;;1.43;0.80;;;22.80;71.00;;;;;;5062497;28;20571;-76
2023/05/29 16:39:14;;;;;;;1.47;0.90;;;22.80;71.20;;;;;;5073172;28;20944;-76
2023/05/29 16:41:44;;;;;;;7.47;1.47;;;22.60;69.90;;;;;;5053632;28;20478;-77
2023/05/29 16:44:11;;;;;;;1.47;0.80;;;22.40;70.70;;;;;;5071557;28;20466;-77
2023/05/29 16:46:39;;;;;;;1.47;0.90;;;22.40;71.30;;;;;;5053608;28;20559;-77
2023/05/29 16:49:06;;;;;;;1.43;0.90;;;22.50;71.60;;;;;;5068242;28;20550;-76
2023/05/29 16:51:36;;;;;;;1.50;0.90;;;22.60;71.90;;;;;;5056490;28;20491;-76
2023/05/29 16:54:03;;;;;;;1.43;0.90;;;22.60;71.00;;;;;;5063029;28;20553;-77
2023/05/29 16:56:30;;;;;;;1.43;0.90;;;22.60;70.10;;;;;;5064444;28;20587;-77
2023/05/29 16:58:57;;;;;;;1.50;0.90;;;22.50;70.30;;;;;;5070102;28;20504;-76
2023/05/29 17:01:24;;;;;;;1.50;1.00;;;22.40;70.20;;;;;;5060955;28;21206;-76
2023/05/29 17:03:51;;;;;;;1.50;0.90;;;22.20;69.70;;;;;;5070337;28;20464;-76
2023/05/29 17:06:18;;;;;;;1.47;0.80;;;22.10;69.80;;;;;;5060591;28;20571;-76
2023/05/29 17:08:47;;;;;;;1.50;1.00;;;22.00;70.90;;;;;;5076730;28;20482;-77
2023/05/29 17:11:14;;;;;;;1.47;0.90;;;22.00;70.90;;;;;;5059440;28;20640;-77
2023/05/29 17:13:41;;;;;;;1.47;0.90;;;22.00;70.60;;;;;;5059145;28;20462;-75
2023/05/29 17:16:09;;;;;;;1.43;0.90;;;21.90;70.50;;;;;;5060193;28;20575;-76
2023/05/29 17:18:36;;;;;;;1.60;1.30;;;21.80;70.10;;;;;;5062959;28;20571;-75
2023/05/29 17:21:03;;;;;;;1.43;0.90;;;21.70;70.60;;;;;;5068246;28;20488;-76
2023/05/29 17:23:30;;;;;;;1.60;1.43;;;21.70;70.30;;;;;;5071363;28;20459;-78
2023/05/29 17:25:59;;;;;;;1.50;0.90;;;21.60;70.80;;;;;;5072833;28;20995;-77
2023/05/29 17:28:27;;;;;;;1.47;0.90;;;21.50;70.20;;;;;;5065502;28;20918;-76
2023/05/29 17:30:53;;;;;;;1.50;0.90;;;21.50;70.90;;;;;;5069970;28;20472;-76